Van Kinsbergen — PAKB — position and weather

sailwx.info

Track history (hours):
 
Tides and Currents Weather Stations Pressure Air Temp Water Temp Dewpoint Dewpoint Depression Visibility Wind Speed Wind Dir Waves Ship Positions

Van Kinsbergen

Last reported at 2015-May-27 08:15 UTC. Time now 2015-May-27 23:58 UTC.
Position N 59°28' E 005°13'.

Length 40 m; draft 3.1 m.

MMSI: 244736000.

Date/timePositionNaut miles runAvg speedWind from/ knotsBaromVisibWave heightAir tempDewpointWater temp
2015-May-27 08:15N 59°28' E 005°13'5 7.1
2015-May-27 07:33N 59°23' E 005°17'9 8.0
2015-May-27 06:29N 59°15' E 005°21'7 7.4
2015-May-27 05:34N 59°08' E 005°24'7 6.8
2015-May-27 04:34N 59°03' E 005°33'6 6.2
2015-May-27 03:33N 58°57' E 005°33'7 7.1
2015-May-27 02:32N 58°50' E 005°29'22 6.7
2015-May-26 23:12N 58°29' E 005°43'5 7.6
2015-May-26 22:34N 58°25' E 005°49'8 7.8
2015-May-26 21:33N 58°19' E 005°58'8 8.1
2015-May-26 20:33N 58°13' E 006°09'9 8.6
2015-May-26 19:33N 58°06' E 006°19'138 9.1
2015-May-26 04:28N 57°48' E 010°36'17 8.6
2015-May-26 02:27N 57°31' E 010°45'18310.6
2015-May-25 09:15N 54°29' E 010°19'7 9.3
2015-May-25 08:34N 54°24' E 010°12'3 3.1
2015-May-25 07:31N 54°22' E 010°09'0 0.0
2015-May-25 06:31N 54°22' E 010°09'0 0.0
2015-May-25 05:31N 54°22' E 010°09'0 0.0
2015-May-25 04:31N 54°22' E 010°09'0 0.0
2015-May-25 03:31N 54°22' E 010°09'0 0.0
2015-May-25 02:31N 54°22' E 010°09'0 0.0
2015-May-25 01:31N 54°22' E 010°09'0 0.0
2015-May-25 00:31N 54°22' E 010°09'0 0.0
2015-May-24 23:31N 54°22' E 010°09'0 0.0
2015-May-24 22:31N 54°22' E 010°09'0 0.0
2015-May-24 21:31N 54°22' E 010°09'0 0.0
2015-May-24 20:31N 54°22' E 010°09'0 0.0
2015-May-24 19:31N 54°22' E 010°09'0 0.0
2015-May-24 18:31N 54°22' E 010°09'0 0.0
2015-May-24 17:31N 54°22' E 010°09'0 0.0
2015-May-24 16:28N 54°22' E 010°09'0 0.0
2015-May-24 15:31N 54°22' E 010°09'0 0.0
2015-May-24 14:31N 54°22' E 010°09'0 0.0
2015-May-24 13:28N 54°22' E 010°09'0 0.0
2015-May-24 12:31N 54°22' E 010°09'0 0.0
2015-May-24 11:28N 54°22' E 010°09'0 0.0
2015-May-24 10:31N 54°22' E 010°09'0 0.0
2015-May-24 09:31N 54°22' E 010°09'0 0.0
2015-May-24 08:31N 54°22' E 010°09'0 0.0
2015-May-24 07:31N 54°22' E 010°09'0 0.0
2015-May-24 06:31N 54°22' E 010°09'0 0.0
2015-May-24 05:31N 54°22' E 010°09'0 0.0
2015-May-24 04:31N 54°22' E 010°09'0 0.0
2015-May-24 03:31N 54°22' E 010°09'0 0.0
2015-May-24 02:31N 54°22' E 010°09'0 0.0
2015-May-24 01:31N 54°22' E 010°09'0 0.0
2015-May-24 00:31N 54°22' E 010°09'0 0.0
2015-May-23 23:31N 54°22' E 010°09'0 0.0
2015-May-23 22:31N 54°22' E 010°09'0 0.0
2015-May-23 21:31N 54°22' E 010°09'0 0.0
2015-May-23 20:31N 54°22' E 010°09'0 0.0
2015-May-23 19:31N 54°22' E 010°09'0 0.0
2015-May-23 18:31N 54°22' E 010°09'0 0.0
2015-May-23 17:31N 54°22' E 010°09'0 0.0
2015-May-23 16:31N 54°22' E 010°09'0 0.0
2015-May-23 15:28N 54°22' E 010°09'1 0.7
2015-May-23 14:33N 54°22' E 010°10'10 9.5
2015-May-23 13:33N 54°30' E 010°18'9 8.6
2015-May-23 12:33N 54°37' E 010°11'251 5.5
2015-May-21 14:33N 58°10' E 006°09'1111.5
2015-May-21 13:33N 58°19' E 005°54'1111.2
2015-May-21 12:33N 58°27' E 005°39'2210.6
2015-May-21 10:26N 58°48' E 005°26'1010.3
2015-May-21 09:29N 58°57' E 005°33'5 5.6
2015-May-21 08:33N 59°01' E 005°39'4 3.9
2015-May-21 07:32N 58°58' E 005°44'0 0.0
2015-May-21 06:32N 58°58' E 005°44'0 0.0
2015-May-21 05:32N 58°58' E 005°44'0 0.0
2015-May-21 04:32N 58°58' E 005°44'0 0.0
2015-May-21 03:32N 58°58' E 005°44'0 0.0
2015-May-21 02:32N 58°58' E 005°44'0 0.0
2015-May-21 01:29N 58°58' E 005°44'0 0.0
2015-May-21 00:32N 58°58' E 005°44'0 0.0
2015-May-20 23:32N 58°58' E 005°44'0 0.0
2015-May-20 22:32N 58°58' E 005°44'0 0.0
2015-May-20 21:32N 58°58' E 005°44'0 0.0
2015-May-20 20:32N 58°58' E 005°44'0 0.0
2015-May-20 19:32N 58°58' E 005°44'0 0.0
2015-May-20 18:32N 58°58' E 005°44'0 0.0
2015-May-20 17:32N 58°58' E 005°44'0 0.0
2015-May-20 16:32N 58°58' E 005°44'0 0.0
2015-May-20 15:32N 58°58' E 005°44'0 0.0
2015-May-20 14:32N 58°58' E 005°44'0 0.0
2015-May-20 13:32N 58°58' E 005°44'0 0.0
2015-May-20 12:32N 58°58' E 005°44'2 2.0
2015-May-20 11:33N 59°00' E 005°42'6 6.4
2015-May-20 10:33N 58°59' E 005°54'7 7.1
2015-May-20 09:33N 58°57' E 006°07'4 1.4
2015-May-20 06:29N 58°59' E 006°13'7 7.7
2015-May-20 05:33N 58°54' E 006°03'7 6.6
2015-May-20 04:33N 58°59' E 005°54'3 2.9
2015-May-20 03:33N 59°02' E 005°55'0 0.4
2015-May-20 02:33N 59°02' E 005°55'4 3.7
2015-May-20 01:33N 59°02' E 005°47'7 6.9
2015-May-20 00:33N 59°03' E 005°34'7 6.8
2015-May-19 23:33N 59°10' E 005°34'8 7.8
2015-May-19 22:33N 59°08' E 005°49'9 8.8
2015-May-19 21:33N 59°14' E 006°01'6 5.8
2015-May-19 20:33N 59°19' E 005°57'9 6.2
2015-May-19 19:06N 59°28' E 005°55'5 9.8
2015-May-19 18:33N 59°28' E 006°06'6 5.6
2015-May-19 17:23N 59°26' E 005°54'7 7.9
2015-May-19 16:30N 59°19' E 005°55'7 7.4
2015-May-19 15:33N 59°12' E 005°49'10 9.6
2015-May-19 14:33N 59°09' E 005°32'7 7.3
2015-May-19 13:33N 59°13' E 005°20'  
Track history (hours):
 
Tides and Currents Weather Stations Pressure Air Temp Water Temp Dewpoint Dewpoint Depression Visibility Wind Speed Wind Dir Waves Ship Positions

Van Kinsbergen

Last reported at 2015-May-27 08:15 UTC. Time now 2015-May-27 23:58 UTC.
Position N 59°28' E 005°13'.

Length 40 m; draft 3.1 m.

MMSI: 244736000.

Date/timePositionNaut miles runAvg speedWind from/ knotsBaromVisibWave heightAir tempDewpointWater temp
2015-May-27 08:15N 59°28' E 005°13'5 7.1
2015-May-27 07:33N 59°23' E 005°17'9 8.0
2015-May-27 06:29N 59°15' E 005°21'7 7.4
2015-May-27 05:34N 59°08' E 005°24'7 6.8
2015-May-27 04:34N 59°03' E 005°33'6 6.2
2015-May-27 03:33N 58°57' E 005°33'7 7.1
2015-May-27 02:32N 58°50' E 005°29'22 6.7
2015-May-26 23:12N 58°29' E 005°43'5 7.6
2015-May-26 22:34N 58°25' E 005°49'8 7.8
2015-May-26 21:33N 58°19' E 005°58'8 8.1
2015-May-26 20:33N 58°13' E 006°09'9 8.6
2015-May-26 19:33N 58°06' E 006°19'138 9.1
2015-May-26 04:28N 57°48' E 010°36'17 8.6
2015-May-26 02:27N 57°31' E 010°45'18310.6
2015-May-25 09:15N 54°29' E 010°19'7 9.3
2015-May-25 08:34N 54°24' E 010°12'3 3.1
2015-May-25 07:31N 54°22' E 010°09'0 0.0
2015-May-25 06:31N 54°22' E 010°09'0 0.0
2015-May-25 05:31N 54°22' E 010°09'0 0.0
2015-May-25 04:31N 54°22' E 010°09'0 0.0
2015-May-25 03:31N 54°22' E 010°09'0 0.0
2015-May-25 02:31N 54°22' E 010°09'0 0.0
2015-May-25 01:31N 54°22' E 010°09'0 0.0
2015-May-25 00:31N 54°22' E 010°09'0 0.0
2015-May-24 23:31N 54°22' E 010°09'0 0.0
2015-May-24 22:31N 54°22' E 010°09'0 0.0
2015-May-24 21:31N 54°22' E 010°09'0 0.0
2015-May-24 20:31N 54°22' E 010°09'0 0.0
2015-May-24 19:31N 54°22' E 010°09'0 0.0
2015-May-24 18:31N 54°22' E 010°09'0 0.0
2015-May-24 17:31N 54°22' E 010°09'0 0.0
2015-May-24 16:28N 54°22' E 010°09'0 0.0
2015-May-24 15:31N 54°22' E 010°09'0 0.0
2015-May-24 14:31N 54°22' E 010°09'0 0.0
2015-May-24 13:28N 54°22' E 010°09'0 0.0
2015-May-24 12:31N 54°22' E 010°09'0 0.0
2015-May-24 11:28N 54°22' E 010°09'0 0.0
2015-May-24 10:31N 54°22' E 010°09'0 0.0
2015-May-24 09:31N 54°22' E 010°09'0 0.0
2015-May-24 08:31N 54°22' E 010°09'0 0.0
2015-May-24 07:31N 54°22' E 010°09'0 0.0
2015-May-24 06:31N 54°22' E 010°09'0 0.0
2015-May-24 05:31N 54°22' E 010°09'0 0.0
2015-May-24 04:31N 54°22' E 010°09'0 0.0
2015-May-24 03:31N 54°22' E 010°09'0 0.0
2015-May-24 02:31N 54°22' E 010°09'0 0.0
2015-May-24 01:31N 54°22' E 010°09'0 0.0
2015-May-24 00:31N 54°22' E 010°09'0 0.0
2015-May-23 23:31N 54°22' E 010°09'0 0.0
2015-May-23 22:31N 54°22' E 010°09'0 0.0
2015-May-23 21:31N 54°22' E 010°09'0 0.0
2015-May-23 20:31N 54°22' E 010°09'0 0.0
2015-May-23 19:31N 54°22' E 010°09'0 0.0
2015-May-23 18:31N 54°22' E 010°09'0 0.0
2015-May-23 17:31N 54°22' E 010°09'0 0.0
2015-May-23 16:31N 54°22' E 010°09'0 0.0
2015-May-23 15:28N 54°22' E 010°09'1 0.7
2015-May-23 14:33N 54°22' E 010°10'10 9.5
2015-May-23 13:33N 54°30' E 010°18'9 8.6
2015-May-23 12:33N 54°37' E 010°11'251 5.5
2015-May-21 14:33N 58°10' E 006°09'1111.5
2015-May-21 13:33N 58°19' E 005°54'1111.2
2015-May-21 12:33N 58°27' E 005°39'2210.6
2015-May-21 10:26N 58°48' E 005°26'1010.3
2015-May-21 09:29N 58°57' E 005°33'5 5.6
2015-May-21 08:33N 59°01' E 005°39'4 3.9
2015-May-21 07:32N 58°58' E 005°44'0 0.0
2015-May-21 06:32N 58°58' E 005°44'0 0.0
2015-May-21 05:32N 58°58' E 005°44'0 0.0
2015-May-21 04:32N 58°58' E 005°44'0 0.0
2015-May-21 03:32N 58°58' E 005°44'0 0.0
2015-May-21 02:32N 58°58' E 005°44'0 0.0
2015-May-21 01:29N 58°58' E 005°44'0 0.0
2015-May-21 00:32N 58°58' E 005°44'0 0.0
2015-May-20 23:32N 58°58' E 005°44'0 0.0
2015-May-20 22:32N 58°58' E 005°44'0 0.0
2015-May-20 21:32N 58°58' E 005°44'0 0.0
2015-May-20 20:32N 58°58' E 005°44'0 0.0
2015-May-20 19:32N 58°58' E 005°44'0 0.0
2015-May-20 18:32N 58°58' E 005°44'0 0.0
2015-May-20 17:32N 58°58' E 005°44'0 0.0
2015-May-20 16:32N 58°58' E 005°44'0 0.0
2015-May-20 15:32N 58°58' E 005°44'0 0.0
2015-May-20 14:32N 58°58' E 005°44'0 0.0
2015-May-20 13:32N 58°58' E 005°44'0 0.0
2015-May-20 12:32N 58°58' E 005°44'2 2.0
2015-May-20 11:33N 59°00' E 005°42'6 6.4
2015-May-20 10:33N 58°59' E 005°54'7 7.1
2015-May-20 09:33N 58°57' E 006°07'4 1.4
2015-May-20 06:29N 58°59' E 006°13'7 7.7
2015-May-20 05:33N 58°54' E 006°03'7 6.6
2015-May-20 04:33N 58°59' E 005°54'3 2.9
2015-May-20 03:33N 59°02' E 005°55'0 0.4
2015-May-20 02:33N 59°02' E 005°55'4 3.7
2015-May-20 01:33N 59°02' E 005°47'7 6.9
2015-May-20 00:33N 59°03' E 005°34'7 6.8
2015-May-19 23:33N 59°10' E 005°34'8 7.8
2015-May-19 22:33N 59°08' E 005°49'9 8.8
2015-May-19 21:33N 59°14' E 006°01'6 5.8
2015-May-19 20:33N 59°19' E 005°57'9 6.2
2015-May-19 19:06N 59°28' E 005°55'5 9.8
2015-May-19 18:33N 59°28' E 006°06'6 5.6
2015-May-19 17:23N 59°26' E 005°54'7 7.9
2015-May-19 16:30N 59°19' E 005°55'7 7.4
2015-May-19 15:33N 59°12' E 005°49'10 9.6
2015-May-19 14:33N 59°09' E 005°32'7 7.3
2015-May-19 13:33N 59°13' E 005°20'  

Dump ship's entire track history